Time;durP1;ratioP1;P1;durP2;ratioP2;P2;SDS_P1;SDS_P2;PMS_P1;PMS_P2;Temp;Humidity;BMP_temperature;BMP_pressure;BME280_temperature;BME280_humidity;BME280_pressure;Samples;Min_cycle;Max_cycle;Signal;HPM_P1;HPM_P2
2022/04/10 00:01:32;;;;;;;9.00;5.30;;;8.30;41.20;;;;;;5090429;28;20289;-73
2022/04/10 00:03:58;;;;;;;8.00;5.00;;;8.30;39.20;;;;;;5090686;28;20321;-75
2022/04/10 00:06:24;;;;;;;9.07;5.30;;;8.10;40.50;;;;;;5090781;28;20910;-75
2022/04/10 00:08:50;;;;;;;10.48;5.65;;;8.10;39.50;;;;;;5090464;28;20205;-73
2022/04/10 00:11:16;;;;;;;16.10;5.30;;;8.10;39.30;;;;;;5090148;28;20721;-75
2022/04/10 00:13:41;;;;;;;12.07;5.97;;;8.30;40.40;;;;;;5090672;28;20416;-75
2022/04/10 00:16:08;;;;;;;11.00;6.13;;;8.50;38.20;;;;;;5090546;28;20189;-75
2022/04/10 00:18:34;;;;;;;12.25;5.60;;;8.60;39.20;;;;;;5092433;28;20416;-75
2022/04/10 00:21:00;;;;;;;10.15;5.28;;;8.70;38.70;;;;;;5094248;28;20261;-75
2022/04/10 00:23:26;;;;;;;10.25;5.78;;;8.60;38.80;;;;;;5094787;28;20197;-75
2022/04/10 00:25:52;;;;;;;13.13;5.50;;;8.50;38.90;;;;;;5095054;28;20178;-75
2022/04/10 00:28:17;;;;;;;11.00;6.30;;;8.50;40.30;;;;;;5095280;28;20498;-76
2022/04/10 00:30:43;;;;;;;9.53;5.50;;;8.70;39.40;;;;;;5095339;28;20254;-76
2022/04/10 00:33:08;;;;;;;11.30;6.00;;;8.10;39.10;;;;;;5094324;28;20201;-75
2022/04/10 00:35:34;;;;;;;12.70;5.70;;;7.40;41.80;;;;;;5095237;28;20765;-76
2022/04/10 00:38:00;;;;;;;9.73;5.50;;;7.70;43.20;;;;;;5095029;28;20220;-75
2022/04/10 00:40:26;;;;;;;12.83;5.20;;;8.40;40.10;;;;;;5094399;28;20178;-75
2022/04/10 00:42:51;;;;;;;12.07;5.77;;;8.20;40.10;;;;;;5094222;28;20622;-75
2022/04/10 00:45:18;;;;;;;12.03;6.10;;;7.60;42.00;;;;;;5094285;28;20196;-74
2022/04/10 00:47:45;;;;;;;11.88;6.28;;;7.90;41.10;;;;;;5086680;28;20497;-75
2022/04/10 00:50:12;;;;;;;15.35;6.15;;;7.90;41.20;;;;;;5094394;28;20178;-76
2022/04/10 00:52:40;;;;;;;10.73;6.07;;;8.20;39.10;;;;;;5093845;28;20668;-76
2022/04/10 00:55:07;;;;;;;11.45;5.78;;;8.50;38.30;;;;;;5094266;28;20269;-74
2022/04/10 00:57:34;;;;;;;10.13;6.10;;;8.30;38.50;;;;;;5093999;28;20193;-75
2022/04/10 00:59:59;;;;;;;11.23;6.20;;;8.50;38.30;;;;;;5094139;28;20191;-73
2022/04/10 01:02:25;;;;;;;10.87;6.70;;;8.50;38.80;;;;;;5093803;28;20197;-75
2022/04/10 01:04:51;;;;;;;9.87;5.43;;;8.30;39.20;;;;;;5093905;28;20202;-75
2022/04/10 01:07:18;;;;;;;13.07;6.10;;;8.60;37.70;;;;;;5093974;28;20170;-75
2022/04/10 01:09:45;;;;;;;10.93;6.43;;;8.80;36.40;;;;;;5093724;28;20221;-75
2022/04/10 01:12:11;;;;;;;10.10;5.53;;;8.70;37.90;;;;;;5093447;28;20198;-75
2022/04/10 01:14:39;;;;;;;13.40;6.00;;;8.50;37.50;;;;;;5094184;28;20223;-74
2022/04/10 01:17:09;;;;;;;10.07;6.20;;;8.00;38.40;;;;;;5085448;28;20187;-74
2022/04/10 01:19:38;;;;;;;16.75;7.30;;;7.60;39.70;;;;;;5093703;28;20189;-76
2022/04/10 01:22:06;;;;;;;13.20;6.20;;;7.40;41.30;;;;;;5093331;28;20237;-74
2022/04/10 01:24:38;;;;;;;17.35;7.25;;;7.10;42.00;;;;;;5093722;28;20182;-73
2022/04/10 01:27:05;;;;;;;21.27;7.30;;;7.30;42.30;;;;;;5093443;28;20182;-73
2022/04/10 01:29:32;;;;;;;21.60;7.60;;;7.70;40.00;;;;;;5092594;28;20305;-75
2022/04/10 01:31:57;;;;;;;14.02;7.18;;;7.70;40.80;;;;;;5093070;28;20289;-75
2022/04/10 01:34:23;;;;;;;14.03;7.23;;;8.00;40.60;;;;;;5091709;28;20266;-75
2022/04/10 01:36:49;;;;;;;15.70;7.33;;;8.20;41.00;;;;;;5091308;28;20194;-75
2022/04/10 01:39:15;;;;;;;17.02;6.68;;;8.40;38.10;;;;;;5092919;28;20429;-75
2022/04/10 01:41:42;;;;;;;11.47;6.30;;;8.30;40.20;;;;;;5093116;28;20243;-75
2022/04/10 01:44:09;;;;;;;10.80;6.47;;;8.30;39.80;;;;;;5093341;28;20506;-76
2022/04/10 01:46:36;;;;;;;11.95;5.90;;;8.10;39.50;;;;;;5093072;28;20202;-74
2022/04/10 01:49:03;;;;;;;10.07;5.85;;;8.30;40.00;;;;;;5093361;28;20729;-75
2022/04/10 01:51:29;;;;;;;13.75;7.05;;;7.90;40.00;;;;;;5090951;28;20210;-75
2022/04/10 01:53:55;;;;;;;10.50;6.63;;;8.20;39.50;;;;;;5092024;28;20193;-73
2022/04/10 01:56:21;;;;;;;12.35;5.97;;;8.20;40.10;;;;;;5092726;28;20204;-75
2022/04/10 01:58:48;;;;;;;7.85;5.53;;;7.90;39.80;;;;;;5092914;28;20183;-74
2022/04/10 02:01:17;;;;;;;9.18;5.22;;;7.80;39.70;;;;;;5093037;28;20202;-75
2022/04/10 02:03:46;;;;;;;12.68;6.85;;;7.90;39.50;;;;;;5092492;28;20191;-75
2022/04/10 02:06:13;;;;;;;19.70;5.80;;;8.00;38.60;;;;;;5092889;28;20179;-75
2022/04/10 02:08:41;;;;;;;11.27;6.43;;;7.90;39.30;;;;;;5092222;28;20260;-75
2022/04/10 02:11:15;;;;;;;14.90;6.35;;;8.10;38.20;;;;;;5092757;28;20224;-74
2022/04/10 02:13:42;;;;;;;14.13;6.57;;;8.10;38.50;;;;;;5092264;28;20175;-74
2022/04/10 02:16:11;;;;;;;9.23;6.32;;;8.20;37.90;;;;;;5087295;28;20179;-74
2022/04/10 02:18:37;;;;;;;10.95;6.30;;;8.30;38.00;;;;;;5092989;28;20190;-74
2022/04/10 02:21:04;;;;;;;16.83;6.90;;;7.50;40.10;;;;;;5092010;28;20192;-74
2022/04/10 02:23:30;;;;;;;13.48;7.10;;;7.50;41.20;;;;;;5092646;28;20424;-74
2022/04/10 02:25:55;;;;;;;15.25;6.60;;;8.00;39.30;;;;;;5092420;28;20620;-75
2022/04/10 02:28:21;;;;;;;11.23;6.00;;;8.10;38.00;;;;;;5074130;28;20289;-75
2022/04/10 02:30:47;;;;;;;12.40;6.53;;;8.20;38.10;;;;;;5092329;28;20175;-75
2022/04/10 02:33:12;;;;;;;12.30;6.00;;;8.10;39.30;;;;;;5092622;28;20217;-75
2022/04/10 02:35:40;;;;;;;10.35;5.72;;;8.00;40.20;;;;;;5092246;28;20199;-75
2022/04/10 02:38:06;;;;;;;12.13;6.05;;;8.10;39.30;;;;;;5092227;28;20644;-74
2022/04/10 02:40:32;;;;;;;10.05;6.18;;;7.80;38.80;;;;;;5092171;28;20236;-75
2022/04/10 02:42:58;;;;;;;11.20;6.40;;;7.90;40.20;;;;;;5091744;28;20202;-74
2022/04/10 02:45:23;;;;;;;9.60;5.80;;;8.00;40.60;;;;;;5092278;28;20178;-74
2022/04/10 02:47:49;;;;;;;13.13;6.40;;;7.30;40.90;;;;;;5091639;28;20597;-74
2022/04/10 02:50:14;;;;;;;10.20;5.87;;;6.90;43.10;;;;;;5073729;28;20171;-74
2022/04/10 02:52:40;;;;;;;14.87;6.20;;;7.50;42.60;;;;;;5091734;28;20737;-74
2022/04/10 02:55:08;;;;;;;9.48;6.03;;;7.70;40.50;;;;;;5092135;28;20196;-74
2022/04/10 02:57:34;;;;;;;12.00;6.70;;;7.80;40.30;;;;;;5092047;28;20538;-76
2022/04/10 03:00:00;;;;;;;10.70;6.50;;;8.00;39.40;;;;;;5091424;28;20189;-74
2022/04/10 03:02:26;;;;;;;10.70;6.40;;;7.80;39.20;;;;;;5091622;28;20197;-76
2022/04/10 03:04:52;;;;;;;12.27;6.30;;;7.80;38.90;;;;;;5091759;28;20597;-72
2022/04/10 03:07:17;;;;;;;16.92;6.80;;;7.50;40.10;;;;;;5093745;28;20220;-75
2022/04/10 03:09:43;;;;;;;10.10;5.37;;;7.00;41.70;;;;;;5091919;28;20571;-74
2022/04/10 03:12:09;;;;;;;11.33;6.33;;;7.20;42.30;;;;;;5091412;28;20732;-74
2022/04/10 03:14:35;;;;;;;8.80;6.30;;;7.60;40.80;;;;;;5091177;28;20179;-74
2022/04/10 03:17:01;;;;;;;10.48;6.10;;;7.40;40.50;;;;;;5089953;28;20179;-75
2022/04/10 03:19:27;;;;;;;13.33;6.03;;;7.50;41.40;;;;;;5091556;28;20190;-75
2022/04/10 03:21:53;;;;;;;13.43;7.32;;;7.50;42.00;;;;;;5091251;28;20205;-74
2022/04/10 03:24:18;;;;;;;9.10;5.97;;;7.60;41.70;;;;;;5091063;28;20205;-74
2022/04/10 03:26:44;;;;;;;20.87;6.63;;;7.80;40.80;;;;;;5091609;28;20691;-74
2022/04/10 03:29:11;;;;;;;11.53;6.90;;;7.70;39.70;;;;;;5090864;28;20293;-74
2022/04/10 03:31:37;;;;;;;10.70;6.47;;;7.60;41.30;;;;;;5091052;28;20197;-74
2022/04/10 03:34:03;;;;;;;9.57;6.20;;;7.40;41.40;;;;;;5091160;28;20593;-74
2022/04/10 03:36:28;;;;;;;8.90;6.23;;;7.40;42.40;;;;;;5091306;28;20174;-74
2022/04/10 03:38:54;;;;;;;17.40;7.33;;;7.60;41.50;;;;;;5091231;28;20179;-76
2022/04/10 03:41:20;;;;;;;10.70;7.10;;;7.60;41.90;;;;;;5091157;28;20195;-74
2022/04/10 03:43:45;;;;;;;12.60;7.63;;;7.60;41.90;;;;;;5090831;28;20231;-75
2022/04/10 03:46:11;;;;;;;15.00;7.20;;;7.70;41.40;;;;;;5090971;28;20244;-75
2022/04/10 03:48:36;;;;;;;11.73;7.20;;;7.60;41.20;;;;;;5090915;28;20195;-76
2022/04/10 03:51:02;;;;;;;12.50;7.03;;;7.30;42.00;;;;;;5091049;28;20200;-76
2022/04/10 03:53:28;;;;;;;14.65;7.43;;;7.20;42.10;;;;;;5090546;28;20229;-74
2022/04/10 03:55:54;;;;;;;16.73;6.57;;;6.90;43.90;;;;;;5091251;28;20588;-75
2022/04/10 03:58:19;;;;;;;13.90;7.93;;;7.30;42.20;;;;;;5090861;28;20265;-74
2022/04/10 04:00:47;;;;;;;12.20;7.13;;;7.10;42.80;;;;;;5090551;28;20231;-75
2022/04/10 04:03:13;;;;;;;13.60;7.05;;;7.20;42.50;;;;;;5090824;28;20194;-75
2022/04/10 04:05:39;;;;;;;14.25;7.95;;;7.20;42.80;;;;;;5091950;28;20223;-75
2022/04/10 04:08:05;;;;;;;17.03;7.80;;;7.00;43.70;;;;;;5080806;28;20566;-75
2022/04/10 04:10:32;;;;;;;11.60;7.57;;;7.10;43.20;;;;;;5090794;28;20913;-75
2022/04/10 04:12:58;;;;;;;15.73;7.75;;;7.30;42.10;;;;;;5099903;28;20433;-76
2022/04/10 04:15:24;;;;;;;12.45;6.95;;;7.10;42.90;;;;;;5106066;28;20175;-76
2022/04/10 04:17:49;;;;;;;14.47;8.30;;;7.00;43.20;;;;;;5107721;28;20175;-76
2022/04/10 04:20:15;;;;;;;18.60;8.47;;;7.00;43.70;;;;;;5105580;28;20194;-74
2022/04/10 04:22:41;;;;;;;12.67;7.37;;;7.10;41.50;;;;;;5091045;28;20213;-75
2022/04/10 04:25:06;;;;;;;12.70;7.73;;;7.00;42.10;;;;;;5070223;28;20197;-74
2022/04/10 04:27:32;;;;;;;11.80;8.00;;;7.00;43.20;;;;;;5091068;28;20189;-74
2022/04/10 04:29:59;;;;;;;15.30;7.60;;;7.10;42.80;;;;;;5072549;28;20464;-74
2022/04/10 04:32:24;;;;;;;13.98;6.93;;;7.00;42.50;;;;;;5090766;28;20448;-73
2022/04/10 04:34:50;;;;;;;12.00;7.53;;;6.90;43.70;;;;;;5090636;28;20178;-75
2022/04/10 04:37:16;;;;;;;17.90;8.23;;;7.20;43.30;;;;;;5091161;28;20170;-74
2022/04/10 04:39:41;;;;;;;21.53;8.47;;;6.90;43.60;;;;;;5091127;28;20182;-74
2022/04/10 04:42:07;;;;;;;14.00;8.67;;;7.10;43.80;;;;;;5090412;28;20195;-75
2022/04/10 04:44:33;;;;;;;12.88;7.90;;;6.90;42.40;;;;;;5090601;28;20174;-75
2022/04/10 04:46:59;;;;;;;17.13;8.70;;;6.70;43.80;;;;;;5090731;28;20183;-73
2022/04/10 04:49:26;;;;;;;12.20;7.87;;;6.90;42.80;;;;;;5090711;28;20599;-75
2022/04/10 04:51:51;;;;;;;14.70;8.18;;;6.90;43.00;;;;;;5090120;28;20474;-74
2022/04/10 04:54:17;;;;;;;16.50;8.67;;;7.20;42.20;;;;;;5090696;28;20183;-75
2022/04/10 04:56:43;;;;;;;12.30;7.90;;;7.20;42.50;;;;;;5090754;28;20416;-73
2022/04/10 04:59:10;;;;;;;14.60;8.53;;;7.10;42.70;;;;;;5090459;28;20664;-75
2022/04/10 05:01:36;;;;;;;15.68;8.68;;;7.00;43.10;;;;;;5088161;28;20191;-74
2022/04/10 05:04:01;;;;;;;16.13;8.83;;;7.20;42.50;;;;;;5090985;28;20224;-74
2022/04/10 05:06:27;;;;;;;16.60;8.67;;;7.10;42.30;;;;;;5094367;28;20201;-75
2022/04/10 05:08:53;;;;;;;15.67;8.70;;;6.90;42.90;;;;;;5094010;28;20194;-75
2022/04/10 05:11:19;;;;;;;18.10;9.50;;;6.80;43.60;;;;;;5094153;28;20432;-76
2022/04/10 05:13:44;;;;;;;12.67;8.60;;;7.00;43.20;;;;;;5094134;28;20167;-76
2022/04/10 05:16:11;;;;;;;16.23;8.53;;;7.30;43.50;;;;;;5093983;28;20174;-76
2022/04/10 05:18:37;;;;;;;16.55;9.20;;;7.60;43.20;;;;;;5094372;28;20594;-74
2022/04/10 05:21:03;;;;;;;15.17;9.10;;;7.30;42.60;;;;;;5093753;28;20186;-75
2022/04/10 05:23:29;;;;;;;13.60;8.13;;;7.20;42.80;;;;;;5094206;28;20185;-74
2022/04/10 05:25:55;;;;;;;14.38;8.90;;;7.30;43.10;;;;;;5094034;28;20583;-74
2022/04/10 05:28:22;;;;;;;17.37;8.43;;;7.20;43.30;;;;;;5093595;28;20206;-74
2022/04/10 05:30:47;;;;;;;13.50;9.15;;;7.20;42.80;;;;;;5093782;28;20257;-75
2022/04/10 05:33:13;;;;;;;10.70;7.90;;;7.20;43.40;;;;;;5093270;28;20286;-75
2022/04/10 05:35:39;;;;;;;16.40;8.70;;;7.40;42.00;;;;;;5093888;28;20442;-76
2022/04/10 05:38:05;;;;;;;16.17;8.77;;;7.60;43.20;;;;;;5093951;28;20425;-75
2022/04/10 05:40:32;;;;;;;18.23;8.47;;;7.80;42.50;;;;;;5093784;28;20895;-75
2022/04/10 05:42:58;;;;;;;14.52;8.63;;;7.90;42.50;;;;;;5093223;28;20535;-75
2022/04/10 05:45:23;;;;;;;15.13;9.53;;;8.00;40.20;;;;;;5093272;28;20299;-75
2022/04/10 05:47:49;;;;;;;17.03;8.63;;;8.20;41.30;;;;;;5093807;28;20456;-76
2022/04/10 05:50:15;;;;;;;11.83;7.90;;;8.20;39.90;;;;;;5093615;28;20431;-75
2022/04/10 05:52:50;;;;;;;14.35;9.02;;;8.50;39.50;;;;;;5109194;28;20190;-75
2022/04/10 05:55:20;;;;;;;16.95;9.00;;;8.80;38.10;;;;;;5093216;28;20739;-76
2022/04/10 05:57:46;;;;;;;20.08;8.68;;;8.40;37.10;;;;;;5093410;28;20202;-74
2022/04/10 06:00:15;;;;;;;16.25;9.18;;;8.50;37.60;;;;;;5087796;28;20179;-75
2022/04/10 06:02:41;;;;;;;15.38;8.23;;;8.60;38.00;;;;;;5093097;28;20252;-74
2022/04/10 06:05:07;;;;;;;12.52;7.85;;;7.60;40.00;;;;;;5093209;28;20206;-74
2022/04/10 06:07:33;;;;;;;13.00;8.48;;;7.50;40.60;;;;;;5092991;28;20170;-75
2022/04/10 06:10:00;;;;;;;16.30;8.00;;;8.10;39.10;;;;;;5093704;28;20244;-76
2022/04/10 06:12:26;;;;;;;14.13;7.80;;;8.70;38.00;;;;;;5074841;28;20445;-76
2022/04/10 06:14:52;;;;;;;13.27;7.88;;;7.90;37.30;;;;;;5093806;28;20660;-76
2022/04/10 06:17:17;;;;;;;15.83;7.80;;;7.80;39.00;;;;;;5093211;28;20227;-76
2022/04/10 06:19:43;;;;;;;13.00;7.70;;;7.80;40.40;;;;;;5093246;28;20646;-75
2022/04/10 06:22:09;;;;;;;12.77;7.97;;;7.50;39.40;;;;;;5092835;28;20210;-75
2022/04/10 06:24:37;;;;;;;12.93;8.00;;;7.50;40.30;;;;;;5092827;28;20805;-75
2022/04/10 06:27:04;;;;;;;16.13;8.18;;;7.90;38.70;;;;;;5093067;28;20244;-74
2022/04/10 06:29:29;;;;;;;14.90;8.43;;;8.30;38.00;;;;;;5093134;28;20687;-75
2022/04/10 06:31:56;;;;;;;18.57;7.60;;;8.80;38.00;;;;;;5092341;28;20289;-75
2022/04/10 06:34:21;;;;;;;11.55;7.78;;;9.20;38.20;;;;;;5093190;28;20182;-75
2022/04/10 06:36:48;;;;;;;10.90;7.73;;;9.20;34.80;;;;;;5093572;28;20232;-75
2022/04/10 06:39:15;;;;;;;10.85;7.78;;;9.10;36.00;;;;;;5093310;28;20175;-75
2022/04/10 06:41:42;;;;;;;14.80;8.20;;;8.50;36.40;;;;;;5093275;28;20578;-75
2022/04/10 06:44:08;;;;;;;12.90;8.02;;;8.30;37.80;;;;;;5093095;28;20542;-76
2022/04/10 06:46:33;;;;;;;16.10;8.33;;;8.90;36.00;;;;;;5092674;28;20175;-75
2022/04/10 06:48:59;;;;;;;13.40;8.07;;;9.40;34.80;;;;;;5093191;28;21227;-74
2022/04/10 06:51:24;;;;;;;15.47;8.07;;;9.80;33.00;;;;;;5093405;28;20205;-76
2022/04/10 06:53:50;;;;;;;15.27;7.33;;;9.70;33.10;;;;;;5085537;28;20200;-76
2022/04/10 06:56:16;;;;;;;12.70;7.70;;;9.00;33.60;;;;;;5091951;28;20220;-75
2022/04/10 06:58:42;;;;;;;17.40;8.20;;;8.70;34.90;;;;;;5092515;28;20210;-75
2022/04/10 07:01:08;;;;;;;14.75;8.00;;;8.00;35.80;;;;;;5073867;28;20187;-78
2022/04/10 07:03:34;;;;;;;11.93;7.13;;;7.90;36.60;;;;;;5093970;28;20190;-78
2022/04/10 07:06:00;;;;;;;10.43;7.20;;;7.90;37.90;;;;;;5095914;28;20185;-77
2022/04/10 07:08:26;;;;;;;13.82;7.97;;;8.00;37.30;;;;;;5095383;28;20712;-79
2022/04/10 07:10:53;;;;;;;13.80;7.70;;;8.50;36.20;;;;;;5093709;28;20175;-76
2022/04/10 07:13:20;;;;;;;12.52;7.60;;;8.90;34.80;;;;;;5092066;28;20204;-78
2022/04/10 07:15:47;;;;;;;10.73;7.47;;;8.40;35.90;;;;;;5092533;28;20167;-77
2022/04/10 07:18:13;;;;;;;11.60;6.95;;;8.00;36.60;;;;;;5092209;28;20176;-76
2022/04/10 07:20:39;;;;;;;16.00;7.55;;;7.60;38.00;;;;;;5092320;28;20169;-77
2022/04/10 07:25:49;;;;;;;14.48;7.72;;;9.00;34.10;;;;;;5094027;28;20468;-78
2022/04/10 07:28:15;;;;;;;13.53;8.23;;;8.90;34.40;;;;;;5092065;28;20212;-75
2022/04/10 07:30:41;;;;;;;17.90;7.63;;;8.90;33.90;;;;;;5092187;28;20187;-75
2022/04/10 07:33:07;;;;;;;12.70;7.17;;;8.50;35.50;;;;;;5091596;28;20200;-76
2022/04/10 07:35:34;;;;;;;12.40;8.60;;;9.20;34.80;;;;;;5091932;28;20650;-77
2022/04/10 07:38:00;;;;;;;16.75;7.43;;;9.30;34.30;;;;;;5092199;28;20181;-76
2022/04/10 07:40:26;;;;;;;14.77;7.47;;;9.50;32.90;;;;;;5073484;28;20231;-76
2022/04/10 07:42:53;;;;;;;11.40;7.80;;;8.70;33.90;;;;;;5091103;28;20951;-76
2022/04/10 07:48:03;;;;;;;12.70;7.65;;;9.00;35.60;;;;;;5090205;28;20722;-77
2022/04/10 07:50:29;;;;;;;15.10;7.93;;;9.50;34.40;;;;;;5110671;28;20179;-79
2022/04/10 07:52:56;;;;;;;14.93;8.33;;;10.10;31.30;;;;;;5094922;28;20440;-80
2022/04/10 07:55:22;;;;;;;18.55;7.93;;;9.60;33.60;;;;;;5099182;28;20435;-79
2022/04/10 07:57:48;;;;;;;10.80;8.00;;;9.90;33.20;;;;;;5093962;28;20183;-78
2022/04/10 08:00:15;;;;;;;12.60;8.40;;;9.40;34.30;;;;;;5093666;28;20201;-78
2022/04/10 08:02:46;;;;;;;13.02;7.78;;;8.90;34.80;;;;;;5091595;28;20436;-78
2022/04/10 08:05:15;;;;;;;11.43;7.70;;;9.00;36.30;;;;;;5086363;28;20280;-79
2022/04/10 08:07:44;;;;;;;18.55;7.47;;;8.70;36.10;;;;;;5093020;28;20181;-78
2022/04/10 08:10:10;;;;;;;16.42;8.95;;;8.90;34.60;;;;;;5106191;28;20178;-77
2022/04/10 08:12:36;;;;;;;13.93;8.10;;;8.90;35.10;;;;;;5113131;28;20431;-77
2022/04/10 08:15:02;;;;;;;12.30;8.00;;;9.20;33.90;;;;;;5091330;28;20428;-76
2022/04/10 08:17:28;;;;;;;9.35;7.00;;;9.60;33.00;;;;;;5091287;28;20417;-76
2022/04/10 08:19:53;;;;;;;14.17;7.63;;;9.80;33.20;;;;;;5092467;28;20826;-77
2022/04/10 08:22:26;;;;;;;12.23;7.77;;;9.30;33.30;;;;;;5092316;28;20206;-77
2022/04/10 08:24:53;;;;;;;17.10;7.80;;;9.10;35.60;;;;;;5091613;28;20189;-76
2022/04/10 08:27:19;;;;;;;10.50;7.10;;;9.10;34.50;;;;;;5090018;28;20221;-77
2022/04/10 08:29:45;;;;;;;16.58;7.13;;;9.00;36.40;;;;;;5091780;28;20680;-77
2022/04/10 08:32:10;;;;;;;13.07;8.07;;;9.10;33.80;;;;;;5091977;28;20221;-76
2022/04/10 08:34:36;;;;;;;12.80;7.73;;;9.70;31.80;;;;;;5093479;28;20205;-77
2022/04/10 08:37:04;;;;;;;12.87;7.57;;;9.60;33.00;;;;;;5097259;28;20186;-78
2022/04/10 08:39:33;;;;;;;14.63;8.00;;;9.80;32.20;;;;;;5095267;28;20186;-78
2022/04/10 08:42:04;;;;;;;12.25;7.65;;;10.00;30.00;;;;;;5102592;28;20215;-76
2022/04/10 08:44:31;;;;;;;10.95;7.25;;;10.20;29.80;;;;;;5095943;28;20199;-77
2022/04/10 08:46:58;;;;;;;14.35;7.47;;;9.80;31.80;;;;;;5096622;28;20187;-77
2022/04/10 08:49:31;;;;;;;12.45;7.70;;;10.00;29.90;;;;;;5097738;28;20190;-77
2022/04/10 08:51:58;;;;;;;14.52;7.63;;;9.70;30.80;;;;;;5096336;28;20699;-75
2022/04/10 08:54:25;;;;;;;17.17;7.28;;;8.90;30.80;;;;;;5093142;28;20176;-76
2022/04/10 08:56:51;;;;;;;11.05;7.32;;;8.70;31.40;;;;;;5100127;28;20191;-76
2022/04/10 08:59:18;;;;;;;12.30;6.73;;;9.10;32.50;;;;;;5103428;28;20185;-77
2022/04/10 09:01:43;;;;;;;12.97;7.13;;;9.50;31.10;;;;;;5096129;28;20698;-77
2022/04/10 09:04:09;;;;;;;11.90;6.93;;;10.40;28.60;;;;;;5095249;28;20435;-75
2022/04/10 09:06:58;;;;;;;15.97;6.97;;;9.90;28.60;;;;;;5098717;28;20176;-78
2022/04/10 09:09:24;;;;;;;9.50;6.17;;;10.30;28.00;;;;;;5095510;28;20202;-77
2022/04/10 09:11:54;;;;;;;17.00;7.60;;;9.60;29.00;;;;;;5097285;28;20435;-77
2022/04/10 09:14:25;;;;;;;12.87;7.17;;;10.00;28.60;;;;;;5096467;28;20507;-77
2022/04/10 09:17:13;;;;;;;17.97;6.77;;;10.40;28.10;;;;;;5096002;28;20476;-77
2022/04/10 09:19:42;;;;;;;13.43;7.20;;;9.50;30.20;;;;;;5097045;28;20420;-77
2022/04/10 09:22:25;;;;;;;9.90;6.90;;;10.30;29.10;;;;;;5097253;28;20816;-76
2022/04/10 09:25:11;;;;;;;12.97;7.17;;;9.90;28.30;;;;;;5097035;28;20413;-77
2022/04/10 09:27:45;;;;;;;13.20;6.53;;;9.70;29.20;;;;;;5088131;28;20417;-77
2022/04/10 09:30:12;;;;;;;9.87;6.23;;;10.30;27.10;;;;;;5103734;28;20408;-76
2022/04/10 09:32:42;;;;;;;10.20;6.90;;;11.00;26.00;;;;;;5097684;28;20440;-78
2022/04/10 09:35:09;;;;;;;15.97;5.93;;;11.00;25.80;;;;;;5094260;28;20458;-78
2022/04/10 09:37:43;;;;;;;11.93;5.90;;;11.00;26.10;;;;;;5102996;28;20428;-77
2022/04/10 09:40:33;;;;;;;15.53;7.20;;;10.60;25.80;;;;;;5103417;28;20459;-77
2022/04/10 09:43:07;;;;;;;11.73;6.37;;;10.50;26.70;;;;;;5094380;28;20446;-76
2022/04/10 09:45:39;;;;;;;11.97;6.73;;;10.20;28.30;;;;;;5093937;28;20451;-77
2022/04/10 09:48:21;;;;;;;12.30;6.90;;;10.20;26.80;;;;;;5090323;28;20460;-76
2022/04/10 09:50:52;;;;;;;10.97;6.33;;;10.60;26.10;;;;;;5093478;28;20801;-77
2022/04/10 09:53:19;;;;;;;13.43;6.50;;;10.40;26.60;;;;;;5095087;28;20520;-77
2022/04/10 09:55:52;;;;;;;8.10;4.00;;;10.50;25.80;;;;;;5076326;28;20957;-76
2022/04/10 09:58:19;;;;;;;7.27;4.63;;;10.50;21.40;;;;;;5100601;28;20504;-77
2022/04/10 10:00:46;;;;;;;8.27;4.70;;;10.80;21.10;;;;;;5095596;28;20482;-77
2022/04/10 10:03:13;;;;;;;10.43;5.37;;;11.00;22.30;;;;;;5095278;28;20960;-78
2022/04/10 10:05:38;;;;;;;11.83;5.70;;;10.40;24.40;;;;;;5098608;28;20455;-77
2022/04/10 10:08:06;;;;;;;10.27;5.70;;;10.20;24.90;;;;;;5094807;28;20814;-77
2022/04/10 10:10:34;;;;;;;14.00;5.50;;;10.30;24.60;;;;;;5095187;28;20175;-77
2022/04/10 10:13:03;;;;;;;15.50;5.80;;;9.90;25.40;;;;;;5101912;28;20439;-77
2022/04/10 10:15:29;;;;;;;17.73;5.87;;;9.80;26.60;;;;;;5099524;28;20432;-77
2022/04/10 10:17:55;;;;;;;8.50;5.00;;;9.90;27.30;;;;;;5104475;28;20411;-76
2022/04/10 10:20:22;;;;;;;9.47;5.03;;;9.80;29.40;;;;;;5116005;28;20422;-77
2022/04/10 10:22:48;;;;;;;11.10;5.27;;;9.90;28.70;;;;;;5109803;28;20452;-77
2022/04/10 10:25:36;;;;;;;6.87;4.70;;;9.60;29.80;;;;;;5110284;28;20454;-77
2022/04/10 10:28:36;;;;;;;349.73;231.53;;;9.40;29.90;;;;;;5086765;28;20214;-77
2022/04/10 10:31:30;;;;;;;7.10;4.20;;;9.30;29.20;;;;;;5090059;28;20432;-77
2022/04/10 10:34:02;;;;;;;8.83;4.10;;;7.20;26.40;;;;;;5094825;28;20790;-76
2022/04/10 10:36:28;;;;;;;7.23;4.20;;;10.30;26.50;;;;;;5092999;28;20922;-76
2022/04/10 10:38:56;;;;;;;6.60;3.90;;;10.40;26.60;;;;;;5092683;28;20466;-76
2022/04/10 10:41:21;;;;;;;9.03;3.90;;;10.40;24.80;;;;;;5092709;28;20437;-77
2022/04/10 10:43:48;;;;;;;8.00;3.90;;;11.00;24.20;;;;;;5092415;28;20515;-76
2022/04/10 10:46:33;;;;;;;5.97;4.30;;;10.70;25.20;;;;;;5092544;28;20186;-76
2022/04/10 10:49:22;;;;;;;10.40;4.40;;;10.40;25.90;;;;;;5092241;28;20869;-77
2022/04/10 10:51:52;;;;;;;7.90;4.50;;;11.40;25.10;;;;;;5078740;28;20447;-77
2022/04/10 10:54:42;;;;;;;9.03;4.40;;;12.10;23.90;;;;;;5093145;28;20459;-77
2022/04/10 10:57:34;;;;;;;8.50;4.27;;;13.10;23.50;;;;;;5084912;28;20406;-76
2022/04/10 11:00:16;;;;;;;9.97;5.27;;;12.50;24.40;;;;;;5092280;28;20444;-77
2022/04/10 11:02:53;;;;;;;11.30;5.97;;;10.40;28.70;;;;;;5091381;28;20909;-75
2022/04/10 11:05:24;;;;;;;9.40;6.43;;;8.80;34.10;;;;;;5092557;28;20470;-75
2022/04/10 11:08:20;;;;;;;9.20;6.10;;;7.90;36.90;;;;;;5074867;28;20429;-76
2022/04/10 11:11:03;;;;;;;12.77;7.03;;;7.70;39.30;;;;;;4989614;28;20907;-77
2022/04/10 11:13:42;;;;;;;11.98;7.43;;;7.90;40.00;;;;;;4997302;28;20448;-75
2022/04/10 11:16:13;;;;;;;12.35;7.10;;;8.50;38.40;;;;;;5003879;28;20193;-77
2022/04/10 11:18:43;;;;;;;10.57;6.20;;;9.30;35.50;;;;;;5004315;28;20644;-77
2022/04/10 11:21:11;;;;;;;14.90;7.13;;;10.30;32.40;;;;;;5002803;28;20437;-75
2022/04/10 11:23:41;;;;;;;11.70;6.77;;;10.40;30.50;;;;;;4992744;28;20448;-76
2022/04/10 11:26:13;;;;;;;9.80;6.00;;;10.50;32.30;;;;;;4991848;28;20429;-76
2022/04/10 11:28:57;;;;;;;12.70;6.40;;;11.10;27.30;;;;;;4990865;28;20465;-78
2022/04/10 11:31:51;;;;;;;10.23;6.50;;;10.40;28.30;;;;;;4974680;28;20848;-78
2022/04/10 11:34:20;;;;;;;8.67;6.13;;;10.60;29.60;;;;;;4993352;28;20453;-77
2022/04/10 11:36:52;;;;;;;12.53;6.50;;;11.20;26.60;;;;;;4993501;28;20417;-77
2022/04/10 11:39:28;;;;;;;12.37;6.30;;;11.50;25.40;;;;;;4985822;28;21077;-79
2022/04/10 11:42:07;;;;;;;9.17;5.93;;;11.70;25.60;;;;;;4991797;28;20819;-76
2022/04/10 11:44:33;;;;;;;14.13;6.00;;;11.80;27.70;;;;;;4992688;28;20420;-78
2022/04/10 11:47:01;;;;;;;10.00;6.43;;;12.20;27.50;;;;;;5051013;28;20929;-75
2022/04/10 11:49:27;;;;;;;7.90;5.97;;;13.70;24.20;;;;;;5091576;28;20809;-75
2022/04/10 11:51:53;;;;;;;10.07;5.73;;;15.00;22.40;;;;;;5091573;28;20540;-75
2022/04/10 11:54:27;;;;;;;8.50;5.20;;;16.40;17.80;;;;;;5094940;28;20419;-78
2022/04/10 11:56:53;;;;;;;13.87;5.53;;;16.80;20.80;;;;;;5098596;28;20416;-78
2022/04/10 11:59:20;;;;;;;7.63;4.80;;;16.00;19.70;;;;;;5095289;28;20417;-78
2022/04/10 12:01:48;;;;;;;6.73;4.43;;;14.60;21.70;;;;;;5094526;28;20441;-75
2022/04/10 12:04:19;;;;;;;8.33;5.67;;;14.50;21.50;;;;;;5093539;28;20785;-76
2022/04/10 12:06:45;;;;;;;22.80;5.80;;;15.40;19.40;;;;;;5091676;28;20412;-77
2022/04/10 12:09:11;;;;;;;13.60;6.30;;;15.90;19.50;;;;;;5073549;28;20514;-76
2022/04/10 12:11:41;;;;;;;8.77;6.07;;;16.70;15.80;;;;;;5092144;28;20457;-76
2022/04/10 12:14:23;;;;;;;10.33;5.90;;;16.80;19.80;;;;;;5091899;28;20178;-77
2022/04/10 12:16:51;;;;;;;9.27;5.30;;;17.00;15.90;;;;;;5074715;28;20424;-77
2022/04/10 12:19:27;;;;;;;8.90;5.33;;;17.60;18.10;;;;;;5093469;28;20429;-77
2022/04/10 12:21:53;;;;;;;8.43;5.40;;;17.80;14.80;;;;;;5093064;28;20538;-77
2022/04/10 12:24:20;;;;;;;7.97;5.03;;;17.80;13.60;;;;;;5092905;28;20417;-77
2022/04/10 12:26:46;;;;;;;19.13;6.10;;;16.90;14.30;;;;;;5092858;28;20185;-76
2022/04/10 12:29:12;;;;;;;5.70;4.13;;;16.00;15.80;;;;;;5091970;28;20990;-77
2022/04/10 12:31:41;;;;;;;6.63;4.37;;;16.30;16.10;;;;;;5092553;28;20623;-78
2022/04/10 12:34:10;;;;;;;7.60;4.97;;;17.20;14.60;;;;;;5092477;28;20187;-76
2022/04/10 12:36:45;;;;;;;7.03;4.60;;;17.40;14.90;;;;;;5084653;28;20991;-77
2022/04/10 12:39:23;;;;;;;6.53;4.30;;;18.90;13.00;;;;;;5092555;28;20752;-77
2022/04/10 12:41:58;;;;;;;8.30;4.70;;;20.40;12.90;;;;;;5094257;28;20438;-77
2022/04/10 12:44:24;;;;;;;10.43;4.83;;;20.80;13.70;;;;;;5093286;28;20859;-78
2022/04/10 12:46:49;;;;;;;7.90;4.10;;;21.60;12.50;;;;;;5093193;28;20459;-77
2022/04/10 12:49:18;;;;;;;6.13;4.40;;;20.60;12.10;;;;;;5091929;28;20215;-77
2022/04/10 12:51:47;;;;;;;7.20;4.40;;;19.10;11.90;;;;;;5090629;28;20780;-76
2022/04/10 12:54:13;;;;;;;7.47;4.60;;;17.10;16.10;;;;;;5072616;28;20418;-77
2022/04/10 12:56:38;;;;;;;6.90;4.10;;;16.10;15.80;;;;;;5091219;28;20437;-77